Sakura — JG5711 — position and weather

sailwx.info

Track history (hours):
 
Tides and Currents Weather Stations Pressure Air Temp Water Temp Dewpoint Dewpoint Depression Visibility Wind Speed Wind Dir Waves Ship Positions

Sakura

Last reported at 2014-Jul-24 21:33 UTC. Time now 2014-Jul-24 21:44 UTC.
Position N 35°27' E 139°40'.

Length 32 m; draft 3.6 m.

Type: Tug. MMSI: 431101178.

Date/timePositionNaut miles runAvg speedWind from/ knotsBaromVisibWave heightAir tempDewpointWater temp
2014-Jul-24 21:33N 35°27' E 139°40'0 0.0
2014-Jul-24 10:28N 35°27' E 139°40'1 1.0
2014-Jul-24 09:33N 35°27' E 139°41'2 2.1
2014-Jul-24 08:33N 35°26' E 139°43'3 2.8
2014-Jul-24 07:34N 35°27' E 139°40'0 0.2
2014-Jul-24 06:34N 35°27' E 139°40'0 0.0
2014-Jul-24 05:34N 35°27' E 139°40'0 0.0
2014-Jul-24 04:34N 35°27' E 139°40'5 4.7
2014-Jul-24 03:33N 35°30' E 139°44'2 2.0
2014-Jul-24 02:33N 35°31' E 139°46'1 1.5
2014-Jul-24 01:34N 35°30' E 139°48'3 3.0
2014-Jul-24 00:33N 35°28' E 139°45'4 4.2
2014-Jul-23 23:33N 35°27' E 139°40'0 0.0
2014-Jul-23 22:33N 35°27' E 139°40'0 0.0
2014-Jul-23 00:05N 35°27' E 139°40'0 0.6
2014-Jul-22 23:33N 35°27' E 139°40'2 1.9
2014-Jul-22 22:33N 35°26' E 139°42'0 0.0
2014-Jul-22 21:33N 35°26' E 139°42'2 1.7
2014-Jul-22 20:34N 35°28' E 139°42'1 1.0
2014-Jul-22 19:34N 35°28' E 139°40'0 0.0
2014-Jul-22 18:34N 35°28' E 139°40'0 0.0
2014-Jul-22 17:34N 35°28' E 139°40'0 0.0
2014-Jul-22 16:34N 35°28' E 139°40'0 0.0
2014-Jul-22 15:34N 35°28' E 139°40'0 0.0
2014-Jul-22 14:34N 35°28' E 139°40'2 1.6
2014-Jul-22 13:34N 35°29' E 139°42'2 2.0
2014-Jul-22 12:33N 35°30' E 139°44'4 4.5
2014-Jul-22 11:34N 35°27' E 139°40'0 0.0
2014-Jul-22 10:34N 35°27' E 139°40'2 2.3
2014-Jul-22 09:33N 35°28' E 139°42'0 0.4
2014-Jul-22 08:33N 35°28' E 139°42'1 1.4
2014-Jul-22 07:33N 35°27' E 139°43'1 1.4
2014-Jul-22 06:33N 35°26' E 139°41'1 0.5
2014-Jul-22 05:33N 35°27' E 139°40'1 0.6
2014-Jul-22 04:33N 35°27' E 139°40'0 0.2
2014-Jul-22 03:33N 35°27' E 139°40'0 0.0
2014-Jul-22 02:33N 35°27' E 139°40'0 0.0
2014-Jul-22 01:33N 35°27' E 139°40'0 0.0
2014-Jul-22 00:33N 35°27' E 139°40'0 0.0
2014-Jul-21 23:33N 35°27' E 139°40'2 1.8
2014-Jul-21 22:33N 35°27' E 139°42'2 1.8
2014-Jul-21 21:33N 35°27' E 139°40'0 0.0
2014-Jul-19 23:16N 35°27' E 139°40'0 0.0
2014-Jul-19 22:33N 35°27' E 139°40'0 0.0
2014-Jul-19 21:33N 35°27' E 139°40'3 2.6
2014-Jul-19 20:33N 35°28' E 139°43'0 0.1
2014-Jul-19 19:33N 35°28' E 139°43'1 1.5
2014-Jul-19 18:33N 35°27' E 139°42'1 0.9
2014-Jul-19 17:33N 35°26' E 139°41'1 0.8
2014-Jul-19 16:33N 35°26' E 139°42'0 0.0
2014-Jul-19 15:33N 35°26' E 139°42'0 0.0
2014-Jul-19 14:33N 35°26' E 139°42'0 0.0
2014-Jul-19 13:33N 35°26' E 139°42'0 0.0
2014-Jul-19 12:33N 35°26' E 139°42'0 0.0
2014-Jul-19 11:33N 35°26' E 139°42'1 1.1
2014-Jul-19 10:33N 35°25' E 139°41'1 0.9
2014-Jul-19 09:33N 35°26' E 139°42'2 1.8
2014-Jul-19 08:33N 35°28' E 139°42'2 1.7
2014-Jul-19 07:33N 35°27' E 139°40'0 0.0
2014-Jul-19 06:33N 35°27' E 139°40'1 0.7
2014-Jul-19 05:34N 35°27' E 139°39'0 0.4
2014-Jul-19 04:33N 35°27' E 139°39'0 0.0
2014-Jul-19 03:33N 35°27' E 139°39'4 4.1
2014-Jul-19 02:33N 35°30' E 139°43'2 2.5
2014-Jul-19 01:33N 35°31' E 139°46'3 2.8
2014-Jul-19 00:33N 35°28' E 139°45'5 4.8
2014-Jul-18 23:33N 35°27' E 139°40'0 0.0
2014-Jul-18 22:33N 35°27' E 139°40'0 0.0
2014-Jul-18 21:33N 35°27' E 139°40'0 0.0
2014-Jul-18 07:12N 35°27' E 139°40'0 0.0
2014-Jul-18 06:34N 35°27' E 139°40'0 0.0
2014-Jul-18 05:34N 35°27' E 139°40'1 0.6
2014-Jul-18 04:33N 35°27' E 139°40'1 0.6
2014-Jul-18 03:33N 35°27' E 139°40'0 0.2
2014-Jul-18 02:33N 35°27' E 139°40'0 0.0
2014-Jul-18 01:33N 35°27' E 139°40'0 0.0
2014-Jul-18 00:33N 35°27' E 139°40'0 0.0
2014-Jul-17 23:33N 35°27' E 139°40'0 0.0
2014-Jul-17 22:33N 35°27' E 139°40'0 0.0
2014-Jul-17 21:33N 35°27' E 139°40'0 0.0
2014-Jul-17 20:33N 35°27' E 139°40'0 0.0
2014-Jul-17 07:14N 35°27' E 139°40'1 1.1
2014-Jul-17 06:34N 35°27' E 139°41'1 0.7
2014-Jul-17 05:33N 35°27' E 139°40'0 0.0
2014-Jul-17 04:33N 35°27' E 139°40'0 0.0
2014-Jul-17 03:33N 35°27' E 139°40'0 0.0
2014-Jul-17 02:33N 35°27' E 139°40'0 0.0
2014-Jul-17 01:33N 35°27' E 139°40'0 0.0
2014-Jul-17 00:33N 35°27' E 139°40'0 0.0
2014-Jul-16 23:33N 35°27' E 139°40'2 2.3
2014-Jul-16 22:34N 35°28' E 139°42'2 1.6
2014-Jul-16 21:34N 35°27' E 139°43'3 2.6
2014-Jul-16 20:33N 35°27' E 139°40'0 0.0
2014-Jul-16 12:20N 35°27' E 139°40'4 5.6
2014-Jul-16 11:33N 35°29' E 139°45'0 0.3
2014-Jul-16 10:33N 35°29' E 139°45'2 1.6
2014-Jul-16 09:33N 35°27' E 139°46'4 4.5
2014-Jul-16 08:33N 35°27' E 139°41'2 1.6
2014-Jul-16 07:33N 35°26' E 139°42'2 2.0
2014-Jul-16 06:34N 35°27' E 139°40'0 0.1
2014-Jul-16 05:34N 35°27' E 139°40'0 0.0
2014-Jul-16 04:34N 35°27' E 139°40'0 0.0
2014-Jul-16 03:34N 35°27' E 139°40'0 0.0
2014-Jul-16 02:33N 35°27' E 139°40'0 0.0
2014-Jul-16 01:33N 35°27' E 139°40'0 0.0
2014-Jul-16 00:33N 35°27' E 139°40'0 0.0
2014-Jul-15 23:34N 35°27' E 139°40'2 1.9
2014-Jul-15 22:34N 35°26' E 139°42'2 1.8
2014-Jul-15 21:33N 35°27' E 139°40'0 0.0
2014-Jul-15 20:33N 35°27' E 139°40'0 0.0
2014-Jul-15 09:20N 35°27' E 139°40'2 3.0
2014-Jul-15 08:33N 35°25' E 139°42'2 2.3
2014-Jul-15 07:33N 35°27' E 139°40'0 0.0
2014-Jul-15 06:33N 35°27' E 139°40'0 0.0
2014-Jul-15 05:34N 35°27' E 139°40'0 0.0
2014-Jul-15 04:33N 35°27' E 139°40'0 0.3
2014-Jul-15 03:34N 35°27' E 139°39'3 3.1
2014-Jul-15 02:34N 35°29' E 139°42'4 3.6
2014-Jul-15 01:33N 35°31' E 139°46'2 1.6
2014-Jul-15 00:33N 35°30' E 139°47'1 0.9
2014-Jul-14 23:33N 35°29' E 139°47'0 0.0
2014-Jul-14 22:33N 35°29' E 139°47'  
Track history (hours):
 
Tides and Currents Weather Stations Pressure Air Temp Water Temp Dewpoint Dewpoint Depression Visibility Wind Speed Wind Dir Waves Ship Positions

Sakura

Last reported at 2014-Jul-24 21:33 UTC. Time now 2014-Jul-24 21:44 UTC.
Position N 35°27' E 139°40'.

Length 32 m; draft 3.6 m.

Type: Tug. MMSI: 431101178.

Date/timePositionNaut miles runAvg speedWind from/ knotsBaromVisibWave heightAir tempDewpointWater temp
2014-Jul-24 21:33N 35°27' E 139°40'0 0.0
2014-Jul-24 10:28N 35°27' E 139°40'1 1.0
2014-Jul-24 09:33N 35°27' E 139°41'2 2.1
2014-Jul-24 08:33N 35°26' E 139°43'3 2.8
2014-Jul-24 07:34N 35°27' E 139°40'0 0.2
2014-Jul-24 06:34N 35°27' E 139°40'0 0.0
2014-Jul-24 05:34N 35°27' E 139°40'0 0.0
2014-Jul-24 04:34N 35°27' E 139°40'5 4.7
2014-Jul-24 03:33N 35°30' E 139°44'2 2.0
2014-Jul-24 02:33N 35°31' E 139°46'1 1.5
2014-Jul-24 01:34N 35°30' E 139°48'3 3.0
2014-Jul-24 00:33N 35°28' E 139°45'4 4.2
2014-Jul-23 23:33N 35°27' E 139°40'0 0.0
2014-Jul-23 22:33N 35°27' E 139°40'0 0.0
2014-Jul-23 00:05N 35°27' E 139°40'0 0.6
2014-Jul-22 23:33N 35°27' E 139°40'2 1.9
2014-Jul-22 22:33N 35°26' E 139°42'0 0.0
2014-Jul-22 21:33N 35°26' E 139°42'2 1.7
2014-Jul-22 20:34N 35°28' E 139°42'1 1.0
2014-Jul-22 19:34N 35°28' E 139°40'0 0.0
2014-Jul-22 18:34N 35°28' E 139°40'0 0.0
2014-Jul-22 17:34N 35°28' E 139°40'0 0.0
2014-Jul-22 16:34N 35°28' E 139°40'0 0.0
2014-Jul-22 15:34N 35°28' E 139°40'0 0.0
2014-Jul-22 14:34N 35°28' E 139°40'2 1.6
2014-Jul-22 13:34N 35°29' E 139°42'2 2.0
2014-Jul-22 12:33N 35°30' E 139°44'4 4.5
2014-Jul-22 11:34N 35°27' E 139°40'0 0.0
2014-Jul-22 10:34N 35°27' E 139°40'2 2.3
2014-Jul-22 09:33N 35°28' E 139°42'0 0.4
2014-Jul-22 08:33N 35°28' E 139°42'1 1.4
2014-Jul-22 07:33N 35°27' E 139°43'1 1.4
2014-Jul-22 06:33N 35°26' E 139°41'1 0.5
2014-Jul-22 05:33N 35°27' E 139°40'1 0.6
2014-Jul-22 04:33N 35°27' E 139°40'0 0.2
2014-Jul-22 03:33N 35°27' E 139°40'0 0.0
2014-Jul-22 02:33N 35°27' E 139°40'0 0.0
2014-Jul-22 01:33N 35°27' E 139°40'0 0.0
2014-Jul-22 00:33N 35°27' E 139°40'0 0.0
2014-Jul-21 23:33N 35°27' E 139°40'2 1.8
2014-Jul-21 22:33N 35°27' E 139°42'2 1.8
2014-Jul-21 21:33N 35°27' E 139°40'0 0.0
2014-Jul-19 23:16N 35°27' E 139°40'0 0.0
2014-Jul-19 22:33N 35°27' E 139°40'0 0.0
2014-Jul-19 21:33N 35°27' E 139°40'3 2.6
2014-Jul-19 20:33N 35°28' E 139°43'0 0.1
2014-Jul-19 19:33N 35°28' E 139°43'1 1.5
2014-Jul-19 18:33N 35°27' E 139°42'1 0.9
2014-Jul-19 17:33N 35°26' E 139°41'1 0.8
2014-Jul-19 16:33N 35°26' E 139°42'0 0.0
2014-Jul-19 15:33N 35°26' E 139°42'0 0.0
2014-Jul-19 14:33N 35°26' E 139°42'0 0.0
2014-Jul-19 13:33N 35°26' E 139°42'0 0.0
2014-Jul-19 12:33N 35°26' E 139°42'0 0.0
2014-Jul-19 11:33N 35°26' E 139°42'1 1.1
2014-Jul-19 10:33N 35°25' E 139°41'1 0.9
2014-Jul-19 09:33N 35°26' E 139°42'2 1.8
2014-Jul-19 08:33N 35°28' E 139°42'2 1.7
2014-Jul-19 07:33N 35°27' E 139°40'0 0.0
2014-Jul-19 06:33N 35°27' E 139°40'1 0.7
2014-Jul-19 05:34N 35°27' E 139°39'0 0.4
2014-Jul-19 04:33N 35°27' E 139°39'0 0.0
2014-Jul-19 03:33N 35°27' E 139°39'4 4.1
2014-Jul-19 02:33N 35°30' E 139°43'2 2.5
2014-Jul-19 01:33N 35°31' E 139°46'3 2.8
2014-Jul-19 00:33N 35°28' E 139°45'5 4.8
2014-Jul-18 23:33N 35°27' E 139°40'0 0.0
2014-Jul-18 22:33N 35°27' E 139°40'0 0.0
2014-Jul-18 21:33N 35°27' E 139°40'0 0.0
2014-Jul-18 07:12N 35°27' E 139°40'0 0.0
2014-Jul-18 06:34N 35°27' E 139°40'0 0.0
2014-Jul-18 05:34N 35°27' E 139°40'1 0.6
2014-Jul-18 04:33N 35°27' E 139°40'1 0.6
2014-Jul-18 03:33N 35°27' E 139°40'0 0.2
2014-Jul-18 02:33N 35°27' E 139°40'0 0.0
2014-Jul-18 01:33N 35°27' E 139°40'0 0.0
2014-Jul-18 00:33N 35°27' E 139°40'0 0.0
2014-Jul-17 23:33N 35°27' E 139°40'0 0.0
2014-Jul-17 22:33N 35°27' E 139°40'0 0.0
2014-Jul-17 21:33N 35°27' E 139°40'0 0.0
2014-Jul-17 20:33N 35°27' E 139°40'0 0.0
2014-Jul-17 07:14N 35°27' E 139°40'1 1.1
2014-Jul-17 06:34N 35°27' E 139°41'1 0.7
2014-Jul-17 05:33N 35°27' E 139°40'0 0.0
2014-Jul-17 04:33N 35°27' E 139°40'0 0.0
2014-Jul-17 03:33N 35°27' E 139°40'0 0.0
2014-Jul-17 02:33N 35°27' E 139°40'0 0.0
2014-Jul-17 01:33N 35°27' E 139°40'0 0.0
2014-Jul-17 00:33N 35°27' E 139°40'0 0.0
2014-Jul-16 23:33N 35°27' E 139°40'2 2.3
2014-Jul-16 22:34N 35°28' E 139°42'2 1.6
2014-Jul-16 21:34N 35°27' E 139°43'3 2.6
2014-Jul-16 20:33N 35°27' E 139°40'0 0.0
2014-Jul-16 12:20N 35°27' E 139°40'4 5.6
2014-Jul-16 11:33N 35°29' E 139°45'0 0.3
2014-Jul-16 10:33N 35°29' E 139°45'2 1.6
2014-Jul-16 09:33N 35°27' E 139°46'4 4.5
2014-Jul-16 08:33N 35°27' E 139°41'2 1.6
2014-Jul-16 07:33N 35°26' E 139°42'2 2.0
2014-Jul-16 06:34N 35°27' E 139°40'0 0.1
2014-Jul-16 05:34N 35°27' E 139°40'0 0.0
2014-Jul-16 04:34N 35°27' E 139°40'0 0.0
2014-Jul-16 03:34N 35°27' E 139°40'0 0.0
2014-Jul-16 02:33N 35°27' E 139°40'0 0.0
2014-Jul-16 01:33N 35°27' E 139°40'0 0.0
2014-Jul-16 00:33N 35°27' E 139°40'0 0.0
2014-Jul-15 23:34N 35°27' E 139°40'2 1.9
2014-Jul-15 22:34N 35°26' E 139°42'2 1.8
2014-Jul-15 21:33N 35°27' E 139°40'0 0.0
2014-Jul-15 20:33N 35°27' E 139°40'0 0.0
2014-Jul-15 09:20N 35°27' E 139°40'2 3.0
2014-Jul-15 08:33N 35°25' E 139°42'2 2.3
2014-Jul-15 07:33N 35°27' E 139°40'0 0.0
2014-Jul-15 06:33N 35°27' E 139°40'0 0.0
2014-Jul-15 05:34N 35°27' E 139°40'0 0.0
2014-Jul-15 04:33N 35°27' E 139°40'0 0.3
2014-Jul-15 03:34N 35°27' E 139°39'3 3.1
2014-Jul-15 02:34N 35°29' E 139°42'4 3.6
2014-Jul-15 01:33N 35°31' E 139°46'2 1.6
2014-Jul-15 00:33N 35°30' E 139°47'1 0.9
2014-Jul-14 23:33N 35°29' E 139°47'0 0.0
2014-Jul-14 22:33N 35°29' E 139°47'  

Dump ship's entire track history